Time;durP1;ratioP1;P1;durP2;ratioP2;P2;SDS_P1;SDS_P2;PMS_P1;PMS_P2;Temp;Humidity;BMP_temperature;BMP_pressure;BME280_temperature;BME280_humidity;BME280_pressure;Samples;Min_cycle;Max_cycle;Signal;HPM_P1;HPM_P2
2024/03/18 00:00:11;;;;;;;12.27;6.90;;;230.80;2252.80;;;;;;4997431;28;20081;-72
2024/03/18 00:02:37;;;;;;;17.38;7.95;;;230.80;2252.80;;;;;;4994603;28;20038;-73
2024/03/18 00:05:04;;;;;;;76.65;37.33;;;230.70;2252.80;;;;;;4995716;28;20018;-73
2024/03/18 00:07:30;;;;;;;23.05;13.25;;;230.60;2252.80;;;;;;5014284;28;20384;-73
2024/03/18 00:09:56;;;;;;;13.80;8.45;;;230.60;2252.80;;;;;;5026465;28;20090;-71
2024/03/18 00:12:22;;;;;;;7.80;5.80;;;230.60;2252.80;;;;;;5030341;28;20112;-72
2024/03/18 00:14:49;;;;;;;9.65;5.38;;;230.60;2252.80;;;;;;5028088;28;20009;-73
2024/03/18 00:17:14;;;;;;;10.77;6.10;;;230.70;2252.80;;;;;;5006087;28;20038;-71
2024/03/18 00:19:40;;;;;;;10.57;5.10;;;230.60;2252.80;;;;;;5027717;28;20136;-72
2024/03/18 00:22:06;;;;;;;6.63;4.80;;;230.60;2252.80;;;;;;5030124;28;20033;-73
2024/03/18 00:24:35;;;;;;;8.35;6.28;;;230.60;2252.80;;;;;;5027584;28;20025;-73
2024/03/18 00:27:01;;;;;;;22.00;19.88;;;230.60;2252.80;;;;;;5027137;28;20115;-73
2024/03/18 00:29:28;;;;;;;10.20;7.13;;;230.60;2252.80;;;;;;5007193;28;20041;-74
2024/03/18 00:31:54;;;;;;;9.00;6.07;;;230.60;2252.80;;;;;;5015098;28;20061;-73
2024/03/18 00:34:19;;;;;;;7.88;4.97;;;230.50;2252.80;;;;;;5016765;28;20030;-71
2024/03/18 00:36:46;;;;;;;8.90;5.88;;;230.50;2252.80;;;;;;5015242;28;20042;-73
2024/03/18 00:39:12;;;;;;;10.35;8.40;;;230.40;2252.80;;;;;;5011358;28;20044;-73
2024/03/18 00:41:47;;;;;;;11.27;7.38;;;205.70;2252.80;;;;;;5010749;28;20579;-72
2024/03/18 00:44:19;;;;;;;8.55;4.75;;;205.70;2252.80;;;;;;5010225;28;20025;-72
2024/03/18 00:46:47;;;;;;;8.40;4.55;;;205.70;2252.80;;;;;;4989039;28;20468;-72
2024/03/18 00:49:16;;;;;;;9.93;7.03;;;230.40;2252.80;;;;;;5016432;28;20022;-72
2024/03/18 00:51:42;;;;;;;8.43;5.85;;;230.50;2252.80;;;;;;5029344;28;20113;-71
2024/03/18 00:54:09;;;;;;;9.73;6.45;;;230.50;2252.80;;;;;;5016823;28;20018;-72
2024/03/18 00:56:39;;;;;;;16.38;10.50;;;230.50;2252.80;;;;;;5029791;28;20039;-73
2024/03/18 00:59:05;;;;;;;11.00;7.57;;;230.40;2252.80;;;;;;5021793;28;20075;-71
2024/03/18 01:01:35;;;;;;;12.10;9.07;;;230.40;2252.80;;;;;;5023547;28;20041;-71
2024/03/18 01:04:02;;;;;;;24.42;21.83;;;230.50;2252.80;;;;;;5020366;28;20542;-71
2024/03/18 01:06:29;;;;;;;13.40;9.57;;;230.50;2252.80;;;;;;5025342;28;20075;-71
2024/03/18 01:08:55;;;;;;;10.38;6.00;;;230.50;2252.80;;;;;;5029120;28;20029;-72
2024/03/18 01:11:21;;;;;;;8.25;5.70;;;230.40;2252.80;;;;;;5027723;28;20024;-71
2024/03/18 01:13:48;;;;;;;7.05;4.97;;;230.40;2252.80;;;;;;5028899;28;20400;-72
2024/03/18 01:16:19;;;;;;;47.60;25.75;;;230.40;2252.80;;;;;;5023394;28;20068;-71
2024/03/18 01:18:46;;;;;;;19.13;10.52;;;230.50;2252.80;;;;;;5021105;28;20029;-72
2024/03/18 01:21:11;;;;;;;11.30;6.53;;;230.40;2252.80;;;;;;5028516;28;20021;-72
2024/03/18 01:23:38;;;;;;;7.15;4.85;;;230.40;2252.80;;;;;;5015233;28;20031;-71
2024/03/18 01:26:04;;;;;;;6.53;4.38;;;230.40;2252.80;;;;;;5016862;28;20030;-72
2024/03/18 01:28:30;;;;;;;6.60;4.50;;;205.60;2252.80;;;;;;5018692;28;20029;-73
2024/03/18 01:31:03;;;;;;;7.57;4.88;;;205.70;2252.80;;;;;;5005366;28;20495;-73
2024/03/18 01:33:32;;;;;;;7.75;4.05;;;205.70;2252.80;;;;;;4997113;28;20484;-73
2024/03/18 01:35:58;;;;;;;25.05;13.30;;;205.70;2252.80;;;;;;5013931;28;20511;-73
2024/03/18 01:38:25;;;;;;;15.18;9.02;;;205.70;2252.80;;;;;;5003819;28;20029;-71
2024/03/18 01:40:51;;;;;;;10.23;6.55;;;205.70;2252.80;;;;;;5027412;28;20430;-73
2024/03/18 01:43:17;;;;;;;9.02;6.00;;;205.60;2252.80;;;;;;5028723;28;20068;-71
2024/03/18 01:45:43;;;;;;;8.85;7.95;;;205.60;2252.80;;;;;;5027149;28;20041;-70
2024/03/18 01:48:09;;;;;;;9.88;7.30;;;205.60;2252.80;;;;;;5016016;28;20026;-73
2024/03/18 01:50:35;;;;;;;11.95;9.40;;;205.60;2252.80;;;;;;5025663;28;20029;-71
2024/03/18 01:53:01;;;;;;;10.40;7.03;;;205.60;2252.80;;;;;;5002722;28;20426;-71
2024/03/18 01:55:27;;;;;;;10.07;7.85;;;205.60;2252.80;;;;;;4998379;28;20077;-70
2024/03/18 01:57:53;;;;;;;11.43;7.40;;;205.60;2252.80;;;;;;4995696;28;20037;-73
2024/03/18 02:03:23;;;;;;;15.95;9.65;;;205.60;2252.80;;;;;;4972619;28;20117;-71
2024/03/18 02:05:49;;;;;;;28.52;15.88;;;205.60;2252.80;;;;;;4975616;28;20039;-73
2024/03/18 02:08:15;;;;;;;12.63;8.02;;;205.50;2252.80;;;;;;4975409;28;20030;-71
2024/03/18 02:10:41;;;;;;;27.50;13.73;;;205.40;2252.80;;;;;;4975746;28;20068;-72
2024/03/18 02:13:07;;;;;;;14.77;9.90;;;205.30;2252.80;;;;;;4986273;28;20070;-73
2024/03/18 02:15:33;;;;;;;244.07;192.73;;;205.20;2252.80;;;;;;4986039;28;20035;-73
2024/03/18 02:17:59;;;;;;;24.27;16.10;;;205.10;2252.80;;;;;;4985259;28;20042;-72
2024/03/18 02:20:27;;;;;;;15.63;10.40;;;;;;;;;;4985582;28;20034;-73
2024/03/18 02:22:53;;;;;;;15.68;9.50;;;;;;;;;;4984178;28;20027;-72
2024/03/18 02:25:19;;;;;;;15.18;10.30;;;;;;;;;;4984850;28;20042;-73
2024/03/18 02:27:46;;;;;;;14.20;9.88;;;;;;;;;;4974649;28;20086;-72
2024/03/18 02:30:12;;;;;;;14.07;9.02;;;;;;;;;;4968451;28;20043;-71
2024/03/18 02:32:41;;;;;;;11.40;6.93;;;;;;;;;;4981135;28;20073;-72
2024/03/18 02:35:08;;;;;;;13.45;7.47;;;;;;;;;;4986712;28;20018;-70
2024/03/18 02:37:35;;;;;;;11.27;6.10;;;;;;;;;;4986661;28;20045;-72
2024/03/18 02:40:01;;;;;;;9.68;5.95;;;;;;;;;;5001051;28;20085;-73
2024/03/18 02:42:28;;;;;;;9.95;6.05;;;;;;;;;;5008814;28;20041;-72
2024/03/18 02:44:54;;;;;;;5.97;4.35;;;;;;;;;;5008180;28;20393;-72
2024/03/18 02:47:20;;;;;;;7.90;4.85;;;;;;;;;;5008619;28;20032;-72
2024/03/18 02:49:46;;;;;;;7.43;4.80;;;;;;;;;;5008715;28;20105;-72
2024/03/18 02:52:12;;;;;;;8.45;5.55;;;;;;;;;;5008692;28;20018;-70
2024/03/18 02:54:39;;;;;;;13.73;6.60;;;;;;;;;;5008741;28;20037;-71
2024/03/18 02:57:05;;;;;;;6.38;4.65;;;;;;;;;;5008631;28;20030;-72
2024/03/18 02:59:31;;;;;;;7.65;4.72;;;;;;;;;;5008540;28;20022;-71
2024/03/18 03:01:57;;;;;;;6.47;4.72;;;;;;;;;;5008700;28;20458;-72
2024/03/18 03:04:23;;;;;;;7.25;5.00;;;;;;;;;;5008450;28;20357;-72
2024/03/18 03:06:49;;;;;;;9.25;5.18;;;;;;;;;;5008433;28;20484;-72
2024/03/18 03:09:16;;;;;;;9.60;6.50;;;;;;;;;;5008416;28;20034;-72
2024/03/18 03:11:43;;;;;;;11.02;5.45;;;;;;;;;;5008593;28;20021;-71
2024/03/18 03:14:09;;;;;;;7.93;5.85;;;;;;;;;;5008524;28;20420;-71
2024/03/18 03:16:35;;;;;;;8.63;4.45;;;;;;;;;;5009462;28;20038;-71
2024/03/18 03:19:01;;;;;;;7.25;4.65;;;;;;;;;;5011899;28;20030;-71
2024/03/18 03:21:28;;;;;;;8.00;4.82;;;;;;;;;;5012343;28;20090;-71
2024/03/18 03:23:54;;;;;;;9.77;5.20;;;;;;;;;;5011782;28;20029;-71
2024/03/18 03:26:20;;;;;;;8.75;6.80;;;;;;;;;;5012661;28;20045;-71
2024/03/18 03:28:46;;;;;;;9.57;5.90;;;;;;;;;;5011816;28;20065;-71
2024/03/18 03:31:14;;;;;;;11.02;7.15;;;;;;;;;;5011627;28;20134;-71
2024/03/18 03:33:40;;;;;;;10.15;9.02;;;;;;;;;;5011823;28;20409;-71
2024/03/18 03:36:07;;;;;;;16.02;14.32;;;;;;;;;;5011805;28;20040;-72
2024/03/18 03:38:33;;;;;;;17.45;11.70;;;;;;;;;;5011837;28;20026;-72
2024/03/18 03:41:00;;;;;;;11.30;7.97;;;;;;;;;;5011814;28;20053;-71
2024/03/18 03:43:26;;;;;;;16.65;12.05;;;;;;;;;;5011363;28;20088;-71
2024/03/18 03:45:57;;;;;;;17.13;15.20;;;;;;;;;;5011593;28;20045;-72
2024/03/18 03:48:27;;;;;;;9.90;7.25;;;;;;;;;;5011281;28;20079;-72
2024/03/18 03:50:54;;;;;;;8.70;6.32;;;;;;;;;;5011343;28;20033;-73
2024/03/18 03:53:20;;;;;;;9.38;5.70;;;;;;;;;;5011595;28;20022;-72
2024/03/18 03:55:46;;;;;;;12.18;8.02;;;;;;;;;;5011569;28;20433;-72
2024/03/18 03:58:13;;;;;;;12.90;7.55;;;;;;;;;;5011128;28;20602;-72
2024/03/18 04:00:46;;;;;;;9.20;6.45;;;;;;;;;;5011310;28;20038;-71
2024/03/18 04:03:15;;;;;;;8.55;5.38;;;;;;;;;;5011569;28;20061;-71
2024/03/18 04:05:42;;;;;;;7.85;4.85;;;;;;;;;;5010981;28;20036;-72
2024/03/18 04:08:08;;;;;;;7.70;4.72;;;;;;;;;;5013787;28;20325;-72
2024/03/18 04:10:34;;;;;;;9.35;5.88;;;;;;;;;;5014440;28;20131;-72
2024/03/18 04:13:00;;;;;;;9.00;4.90;;;;;;;;;;5011480;28;20510;-72
2024/03/18 04:15:27;;;;;;;7.63;4.57;;;;;;;;;;5011133;28;20407;-73
2024/03/18 04:17:54;;;;;;;7.55;4.72;;;;;;;;;;5011142;28;20522;-72
2024/03/18 04:20:21;;;;;;;6.28;4.60;;;;;;;;;;5011130;28;20026;-72
2024/03/18 04:22:51;;;;;;;30.30;22.20;;;;;;;;;;5011087;28;20026;-71
2024/03/18 04:25:18;;;;;;;9.05;5.85;;;;;;;;;;5010916;28;20029;-72
2024/03/18 04:27:45;;;;;;;7.47;5.45;;;;;;;;;;5009995;28;20021;-68
2024/03/18 04:30:21;;;;;;;10.70;9.60;;;;;;;;;;5010280;28;20129;-71
2024/03/18 04:32:50;;;;;;;7.00;4.70;;;;;;;;;;5010993;28;20287;-72
2024/03/18 04:35:20;;;;;;;10.18;5.50;;;;;;;;;;5010666;28;20101;-71
2024/03/18 04:37:46;;;;;;;7.68;4.90;;;;;;;;;;4996608;28;20080;-71
2024/03/18 04:40:16;;;;;;;5.85;4.07;;;;;;;;;;5010154;28;20487;-71
2024/03/18 04:42:43;;;;;;;6.47;3.95;;;179.70;2252.80;;;;;;5010615;28;20033;-71
2024/03/18 04:45:10;;;;;;;6.60;4.25;;;179.60;2252.80;;;;;;5010572;28;20030;-71
2024/03/18 04:47:45;;;;;;;6.35;4.28;;;179.40;2252.80;;;;;;5010760;28;20057;-70
2024/03/18 04:50:11;;;;;;;6.35;4.38;;;;;;;;;;5010233;28;20028;-72
2024/03/18 04:52:38;;;;;;;9.60;4.80;;;;;;;;;;5010421;28;20524;-72
2024/03/18 04:55:05;;;;;;;6.97;3.95;;;;;;;;;;5010533;28;20364;-72
2024/03/18 04:57:32;;;;;;;5.57;4.20;;;;;;;;;;5010173;28;20084;-72
2024/03/18 04:59:58;;;;;;;7.90;5.28;;;;;;;;;;5009940;28;20025;-72
2024/03/18 05:02:24;;;;;;;5.70;4.20;;;;;;;;;;5010232;28;20507;-71
2024/03/18 05:04:51;;;;;;;7.82;4.75;;;;;;;;;;5010340;28;20022;-72
2024/03/18 05:07:17;;;;;;;10.38;6.82;;;;;;;;;;5010159;28;20049;-72
2024/03/18 05:09:49;;;;;;;7.90;5.53;;;;;;;;;;5009932;28;20022;-72
2024/03/18 05:12:16;;;;;;;10.73;6.30;;;;;;;;;;5010190;28;20029;-71
2024/03/18 05:14:42;;;;;;;8.18;5.15;;;;;;;;;;5010049;28;20316;-72
2024/03/18 05:17:08;;;;;;;8.40;5.72;;;;;;;;;;5001613;28;20117;-71
2024/03/18 05:19:34;;;;;;;11.05;5.70;;;;;;;;;;5005945;28;20021;-72
2024/03/18 05:22:00;;;;;;;8.93;6.22;;;;;;;;;;5009669;28;20030;-72
2024/03/18 05:24:27;;;;;;;9.57;5.50;;;;;;;;;;5009838;28;20099;-71
2024/03/18 05:26:52;;;;;;;7.50;5.93;;;205.30;2252.80;;;;;;5010042;28;20033;-71
2024/03/18 05:29:18;;;;;;;11.27;5.93;;;205.20;2252.80;;;;;;5009042;28;20412;-70
2024/03/18 05:31:47;;;;;;;14.75;8.45;;;205.20;2252.80;;;;;;5012488;28;20037;-71
2024/03/18 05:34:13;;;;;;;9.45;6.63;;;205.40;2252.80;;;;;;5009536;28;20097;-70
2024/03/18 05:36:39;;;;;;;11.75;7.90;;;;;;;;;;5009682;28;20109;-71
2024/03/18 05:39:08;;;;;;;11.50;6.97;;;205.70;2252.80;;;;;;5009195;28;20027;-71
2024/03/18 05:41:35;;;;;;;12.88;7.35;;;;;;;;;;5008970;28;20089;-71
2024/03/18 05:44:01;;;;;;;11.05;7.45;;;;;;;;;;5009278;28;20053;-71
2024/03/18 05:46:27;;;;;;;9.27;5.82;;;;;;;;;;5009539;28;20376;-71
2024/03/18 05:48:53;;;;;;;9.55;5.93;;;;;;;;;;5009283;28;20025;-71
2024/03/18 05:51:19;;;;;;;9.88;5.97;;;;;;;;;;5009374;28;20064;-72
2024/03/18 05:53:45;;;;;;;9.18;6.70;;;;;;;;;;5009265;28;20026;-72
2024/03/18 05:56:12;;;;;;;9.60;6.43;;;;;;;;;;5009174;28;20353;-71
2024/03/18 05:58:41;;;;;;;13.10;8.07;;;;;;;;;;5005830;28;20026;-71
2024/03/18 06:01:10;;;;;;;21.70;9.52;;;;;;;;;;5009117;28;20032;-72
2024/03/18 06:03:37;;;;;;;19.55;10.50;;;231.20;2252.80;;;;;;5009479;28;20025;-72
2024/03/18 06:06:04;;;;;;;13.88;9.07;;;;;;;;;;5008927;28;20026;-71
2024/03/18 06:08:30;;;;;;;12.93;9.57;;;;;;;;;;5009063;28;20025;-71
2024/03/18 06:10:57;;;;;;;16.08;12.82;;;;;;;;;;5009186;28;20121;-70
2024/03/18 06:13:23;;;;;;;14.35;9.95;;;;;;;;;;5008747;28;20029;-72
2024/03/18 06:15:50;;;;;;;13.63;9.68;;;384.20;2329.60;;;;;;4991346;28;20045;-72
2024/03/18 06:18:16;;;;;;;15.35;9.68;;;384.30;2329.60;;;;;;5009086;28;20037;-71
2024/03/18 06:20:43;;;;;;;10.02;8.10;;;410.00;2278.40;;;;;;5008744;28;20022;-72
2024/03/18 06:23:11;;;;;;;10.32;7.60;;;410.30;2227.20;;;;;;5008854;28;20033;-72
2024/03/18 06:28:22;;;;;;;7.63;6.20;;;512.30;1894.40;;;;;;5008857;28;20029;-71
2024/03/18 06:30:51;;;;;;;14.02;7.03;;;538.10;1817.60;;;;;;5008648;28;20136;-72
2024/03/18 06:33:21;;;;;;;10.50;7.57;;;538.10;1945.60;;;;;;5009188;28;20438;-72
2024/03/18 06:35:48;;;;;;;13.68;9.68;;;564.10;1715.20;;;;;;5008698;28;20030;-72
2024/03/18 06:38:15;;;;;;;12.25;9.88;;;;;;;;;;5008654;28;20112;-72
2024/03/18 06:40:42;;;;;;;9.82;8.18;;;640.40;1536.00;;;;;;5004812;28;20023;-71
2024/03/18 06:43:08;;;;;;;13.90;9.63;;;640.40;1536.00;;;;;;5000562;28;20216;-72
2024/03/18 06:45:35;;;;;;;12.38;8.65;;;666.00;1510.40;;;;;;5011944;28;20128;-71
2024/03/18 06:48:03;;;;;;;16.17;7.95;;;691.40;1459.20;;;;;;5008626;28;20022;-72
2024/03/18 06:50:30;;;;;;;10.88;7.68;;;691.80;1433.60;;;;;;5008743;28;20033;-72
2024/03/18 06:52:57;;;;;;;25.67;17.10;;;716.90;1408.00;;;;;;5012107;28;20100;-70
2024/03/18 06:55:23;;;;;;;15.40;12.65;;;716.80;1408.00;;;;;;5012650;28;20109;-71
2024/03/18 06:57:49;;;;;;;27.75;18.70;;;717.40;1356.80;;;;;;5012630;28;20037;-72
2024/03/18 07:00:19;;;;;;;25.27;19.17;;;717.60;1356.80;;;;;;5011961;28;20030;-71
2024/03/18 07:02:49;;;;;;;98.00;75.13;;;742.50;1356.80;;;;;;5012465;28;20058;-72
2024/03/18 07:05:19;;;;;;;25.23;21.00;;;742.90;1305.60;;;;;;4994416;28;20053;-72
2024/03/18 07:07:44;;;;;;;29.08;26.00;;;768.00;1305.60;;;;;;5012512;28;20105;-74
2024/03/18 07:10:11;;;;;;;32.75;29.25;;;793.70;1280.00;;;;;;5012045;28;20445;-71
2024/03/18 07:12:38;;;;;;;26.00;23.20;;;794.30;1254.40;;;;;;5012590;28;20061;-73
2024/03/18 07:15:09;;;;;;;28.77;23.05;;;819.20;1228.80;;;;;;5011854;28;20026;-71
2024/03/18 07:17:36;;;;;;;28.75;25.67;;;819.50;1203.20;;;;;;5007330;28;20088;-77
2024/03/18 07:20:04;;;;;;;30.65;27.38;;;794.30;1203.20;;;;;;5011885;28;20026;-76
2024/03/18 07:22:29;;;;;;;30.98;26.80;;;819.90;1177.60;;;;;;4994468;28;20393;-78
2024/03/18 07:24:55;;;;;;;38.70;34.75;;;845.20;1152.00;;;;;;5011809;28;20037;-76
2024/03/18 07:27:22;;;;;;;35.75;29.27;;;768.00;1228.80;;;;;;5012083;28;20022;-74
2024/03/18 07:29:47;;;;;;;48.85;43.80;;;665.70;1356.80;;;;;;5011800;28;20099;-75
2024/03/18 07:32:15;;;;;;;30.63;24.95;;;589.60;1459.20;;;;;;4994320;28;20025;-75
2024/03/18 07:34:41;;;;;;;22.05;18.90;;;563.70;1536.00;;;;;;5011757;28;20448;-74
2024/03/18 07:37:06;;;;;;;34.40;28.40;;;563.20;1561.60;;;;;;5011774;28;20061;-77
2024/03/18 07:39:32;;;;;;;37.38;31.48;;;538.00;1587.20;;;;;;5011808;28;20109;-80
2024/03/18 07:41:59;;;;;;;46.00;33.80;;;512.80;1612.80;;;;;;5011951;28;20062;-77
2024/03/18 07:44:25;;;;;;;66.53;56.28;;;487.10;1689.60;;;;;;5014289;28;20109;-77
2024/03/18 07:46:51;;;;;;;44.58;33.28;;;487.00;1715.20;;;;;;5011769;28;20548;-76
2024/03/18 07:49:16;;;;;;;41.38;32.60;;;486.70;1766.40;;;;;;5011992;28;20079;-76
2024/03/18 07:51:42;;;;;;;32.28;25.08;;;486.50;1766.40;;;;;;5011428;28;20026;-77
2024/03/18 07:54:09;;;;;;;38.10;26.27;;;512.20;1689.60;;;;;;5011834;28;20022;-76
2024/03/18 07:56:35;;;;;;;34.90;26.05;;;564.10;1612.80;;;;;;5011478;28;20036;-77
2024/03/18 07:59:01;;;;;;;30.60;22.40;;;666.50;1382.40;;;;;;5011325;28;20018;-77
2024/03/18 08:01:26;;;;;;;14.68;9.18;;;691.20;1356.80;;;;;;5011717;28;20069;-76
2024/03/18 08:03:52;;;;;;;23.17;13.80;;;614.60;1331.20;;;;;;5011030;28;20398;-78
2024/03/18 08:06:18;;;;;;;22.85;14.68;;;589.50;1408.00;;;;;;5011625;28;20032;-77
2024/03/18 08:08:44;;;;;;;14.32;8.50;;;589.40;1408.00;;;;;;5011210;28;20133;-76
2024/03/18 08:11:10;;;;;;;15.30;11.85;;;640.50;1254.40;;;;;;5011781;28;20049;-78
2024/03/18 08:13:36;;;;;;;9.23;7.35;;;640.10;1305.60;;;;;;5011581;28;20459;-79
2024/03/18 08:16:02;;;;;;;9.93;6.57;;;665.80;1254.40;;;;;;5011028;28;20030;-76
2024/03/18 08:18:28;;;;;;;7.95;6.57;;;692.10;1177.60;;;;;;5011069;28;20037;-79
2024/03/18 08:20:54;;;;;;;11.20;8.60;;;742.70;1177.60;;;;;;5010891;28;20026;-76
2024/03/18 08:23:20;;;;;;;12.13;9.82;;;742.60;1177.60;;;;;;5011024;28;20033;-76
2024/03/18 08:25:46;;;;;;;14.18;10.18;;;743.20;1152.00;;;;;;5011009;28;20486;-76
2024/03/18 08:28:12;;;;;;;13.65;10.15;;;768.40;1126.40;;;;;;5011061;28;20025;-76
2024/03/18 08:30:38;;;;;;;13.77;11.52;;;743.30;1152.00;;;;;;5009899;28;20042;-76
2024/03/18 08:33:05;;;;;;;10.20;8.05;;;742.40;1203.20;;;;;;5009676;28;20032;-77
2024/03/18 08:35:32;;;;;;;8.27;7.13;;;768.60;1100.80;;;;;;5009912;28;20018;-77
2024/03/18 08:37:58;;;;;;;8.90;6.90;;;794.20;1100.80;;;;;;4992422;28;20034;-79
2024/03/18 08:40:24;;;;;;;7.30;6.03;;;819.30;1049.60;;;;;;5008067;28;20738;-75
2024/03/18 08:42:51;;;;;;;8.02;7.22;;;819.80;1024.00;;;;;;5017473;28;20112;-76
2024/03/18 08:45:18;;;;;;;8.10;6.70;;;793.60;1075.20;;;;;;5009380;28;20475;-79
2024/03/18 08:47:44;;;;;;;8.68;7.47;;;819.80;1024.00;;;;;;5009848;28;20034;-75
2024/03/18 08:50:10;;;;;;;6.95;5.10;;;844.90;1049.60;;;;;;4991860;28;20034;-77
2024/03/18 08:52:39;;;;;;;7.72;6.07;;;793.60;1075.20;;;;;;5009906;28;20022;-76
2024/03/18 08:55:05;;;;;;;9.82;5.75;;;768.40;1075.20;;;;;;5009767;28;20058;-76
2024/03/18 08:57:31;;;;;;;13.45;11.55;;;742.90;1100.80;;;;;;5009734;28;20038;-78
2024/03/18 08:59:57;;;;;;;12.63;8.90;;;742.90;1126.40;;;;;;5009298;28;20029;-76
2024/03/18 09:02:23;;;;;;;14.40;12.80;;;717.30;1152.00;;;;;;5009589;28;20518;-75
2024/03/18 09:04:49;;;;;;;10.40;8.40;;;691.70;1177.60;;;;;;5009278;28;20064;-76
2024/03/18 09:07:15;;;;;;;14.52;6.28;;;640.90;1203.20;;;;;;5009458;28;20034;-75
2024/03/18 09:09:41;;;;;;;12.48;9.13;;;614.80;1280.00;;;;;;5009436;28;20010;-72
2024/03/18 09:12:07;;;;;;;8.88;5.78;;;589.20;1356.80;;;;;;5009147;28;20079;-73
2024/03/18 09:14:33;;;;;;;12.48;6.80;;;564.10;1382.40;;;;;;4998048;28;20030;-72
2024/03/18 09:17:03;;;;;;;8.27;4.90;;;563.30;1433.60;;;;;;4995812;28;20085;-73
2024/03/18 09:19:29;;;;;;;13.18;8.45;;;538.20;1433.60;;;;;;4999369;28;20109;-72
2024/03/18 09:21:56;;;;;;;15.55;11.02;;;537.70;1459.20;;;;;;4995556;28;20026;-74
2024/03/18 09:24:22;;;;;;;10.85;5.78;;;512.20;1484.80;;;;;;5004676;28;20040;-73
2024/03/18 09:26:48;;;;;;;24.10;18.45;;;487.30;1510.40;;;;;;5002251;28;20053;-72
2024/03/18 09:29:14;;;;;;;25.90;13.15;;;487.30;1536.00;;;;;;4954681;28;1306010;-74
2024/03/18 09:31:42;;;;;;;22.08;14.38;;;487.00;1536.00;;;;;;5000093;28;20022;-76
2024/03/18 09:34:09;;;;;;;18.25;12.50;;;486.70;1536.00;;;;;;4992676;28;20031;-75
2024/03/18 09:36:35;;;;;;;4.55;3.90;;;486.80;1561.60;;;;;;4995577;28;20041;-76
2024/03/18 09:39:01;;;;;;;26.95;17.58;;;461.70;1587.20;;;;;;4992903;28;20361;-75
2024/03/18 09:41:28;;;;;;;8.35;4.75;;;461.60;1612.80;;;;;;4993328;28;20101;-75
2024/03/18 09:43:55;;;;;;;9.50;5.68;;;461.60;1612.80;;;;;;5004066;28;20029;-77
2024/03/18 09:46:21;;;;;;;14.73;8.98;;;461.60;1612.80;;;;;;4986846;28;20030;-75
2024/03/18 09:48:47;;;;;;;18.02;13.00;;;461.60;1612.80;;;;;;4998761;28;20541;-77
2024/03/18 09:51:16;;;;;;;12.13;6.68;;;461.30;1638.40;;;;;;4979074;28;20380;-75
2024/03/18 09:53:46;;;;;;;18.27;11.05;;;461.10;1664.00;;;;;;5007334;28;20026;-74
2024/03/18 09:56:15;;;;;;;37.92;20.10;;;461.20;1664.00;;;;;;4996580;28;20097;-73
2024/03/18 09:58:44;;;;;;;22.17;16.20;;;461.10;1664.00;;;;;;5009735;28;20355;-74
2024/03/18 10:01:13;;;;;;;12.20;7.13;;;461.40;1689.60;;;;;;4998794;28;20551;-74
2024/03/18 10:03:42;;;;;;;6.95;4.07;;;461.50;1689.60;;;;;;5004354;28;20784;-73
2024/03/18 10:06:08;;;;;;;8.05;6.13;;;461.30;1689.60;;;;;;5008270;28;20022;-76
2024/03/18 10:08:37;;;;;;;7.07;3.78;;;461.30;1664.00;;;;;;5004793;28;20026;-74
2024/03/18 10:11:03;;;;;;;6.75;4.75;;;461.40;1664.00;;;;;;5006506;28;20090;-73
2024/03/18 10:13:29;;;;;;;9.93;5.80;;;461.70;1689.60;;;;;;5009919;28;20029;-74
2024/03/18 10:15:55;;;;;;;10.45;6.65;;;486.40;1689.60;;;;;;5006873;28;20380;-76
2024/03/18 10:18:25;;;;;;;9.70;6.35;;;461.50;1664.00;;;;;;5006535;28;20034;-75
2024/03/18 10:20:52;;;;;;;6.88;4.95;;;461.60;1715.20;;;;;;5004325;28;20029;-74
2024/03/18 10:23:18;;;;;;;11.25;7.78;;;461.40;1689.60;;;;;;5002305;28;20037;-76
2024/03/18 10:25:44;;;;;;;13.00;8.23;;;461.20;1715.20;;;;;;4998009;28;20798;-74
2024/03/18 10:28:12;;;;;;;5.95;4.88;;;461.50;1715.20;;;;;;5016073;28;20024;-74
2024/03/18 10:30:38;;;;;;;7.47;4.70;;;461.10;1715.20;;;;;;5008902;28;20081;-77
2024/03/18 10:33:11;;;;;;;7.13;4.45;;;461.00;1740.80;;;;;;5003332;28;20069;-73
2024/03/18 10:35:43;;;;;;;7.90;5.30;;;436.10;1689.60;;;;;;4992606;28;20030;-73
2024/03/18 10:38:12;;;;;;;6.63;4.55;;;460.90;1740.80;;;;;;4990848;28;20045;-73
2024/03/18 10:40:39;;;;;;;9.10;5.63;;;461.20;1920.00;;;;;;5005581;28;20022;-73
2024/03/18 10:43:07;;;;;;;46.30;10.15;;;461.30;1715.20;;;;;;4997292;28;20036;-74
2024/03/18 10:45:55;;;;;;;8.93;6.60;;;461.40;1689.60;;;;;;5009232;28;20026;-74
2024/03/18 10:48:21;;;;;;;7.88;5.40;;;461.40;1740.80;;;;;;5005167;28;20120;-75
2024/03/18 10:50:50;;;;;;;11.38;9.07;;;461.40;1766.40;;;;;;5017977;28;20088;-74
2024/03/18 10:53:21;;;;;;;7.80;4.85;;;461.30;1715.20;;;;;;5003553;28;20061;-77
2024/03/18 10:55:49;;;;;;;12.68;5.38;;;461.40;1740.80;;;;;;5013185;28;20033;-75
2024/03/18 10:58:19;;;;;;;9.55;7.10;;;461.30;1715.20;;;;;;4994253;28;20053;-73
2024/03/18 11:00:46;;;;;;;18.42;11.77;;;461.30;1766.40;;;;;;4998222;28;20033;-73
2024/03/18 11:03:18;;;;;;;50.05;42.20;;;461.30;1792.00;;;;;;4993272;28;20030;-74
2024/03/18 11:05:51;;;;;;;44.15;37.22;;;461.30;1740.80;;;;;;5016395;28;20028;-72
2024/03/18 11:08:20;;;;;;;15.27;9.35;;;461.30;1740.80;;;;;;5027616;28;20037;-75
2024/03/18 11:10:48;;;;;;;6.88;5.13;;;461.30;1740.80;;;;;;5025441;28;20469;-73
2024/03/18 11:13:19;;;;;;;11.15;6.63;;;461.20;1715.20;;;;;;5024395;28;20108;-73
2024/03/18 11:15:47;;;;;;;9.25;5.20;;;461.10;1740.80;;;;;;5015902;28;20069;-73
2024/03/18 11:18:27;;;;;;;14.38;9.45;;;461.10;1715.20;;;;;;5008241;28;20033;-73
2024/03/18 11:20:55;;;;;;;9.50;7.20;;;461.00;1715.20;;;;;;5008193;28;20089;-73
2024/03/18 11:23:23;;;;;;;35.58;31.52;;;461.00;1766.40;;;;;;5008054;28;20161;-74
2024/03/18 11:25:53;;;;;;;9.43;6.40;;;461.20;1766.40;;;;;;5008343;28;20101;-73
2024/03/18 11:28:20;;;;;;;10.27;6.25;;;461.30;1715.20;;;;;;5008502;28;20018;-73
2024/03/18 11:30:49;;;;;;;17.23;9.32;;;461.30;1715.20;;;;;;5008074;28;20042;-76
2024/03/18 11:33:15;;;;;;;11.98;7.32;;;461.40;1766.40;;;;;;4997816;28;20088;-73
2024/03/18 11:35:42;;;;;;;11.13;7.65;;;461.40;1715.20;;;;;;5008403;28;20407;-77
2024/03/18 11:38:16;;;;;;;15.13;9.30;;;461.20;1715.20;;;;;;5010053;28;20116;-73
2024/03/18 11:40:42;;;;;;;10.43;7.57;;;461.30;1766.40;;;;;;5011724;28;20514;-73
2024/03/18 11:43:09;;;;;;;12.00;7.53;;;461.50;1792.00;;;;;;5011848;28;20431;-74
2024/03/18 11:45:36;;;;;;;12.82;9.65;;;461.70;1766.40;;;;;;5011504;28;20373;-72
2024/03/18 11:48:10;;;;;;;11.50;7.45;;;461.60;1740.80;;;;;;5011229;28;20065;-73
2024/03/18 11:50:38;;;;;;;10.30;8.32;;;486.40;1715.20;;;;;;5007202;28;20026;-74
2024/03/18 11:53:07;;;;;;;17.17;11.38;;;486.40;1740.80;;;;;;4994730;28;20121;-75
2024/03/18 11:55:42;;;;;;;7.28;5.10;;;486.40;1715.20;;;;;;4998110;28;20136;-73
2024/03/18 11:58:12;;;;;;;8.38;6.10;;;486.60;1689.60;;;;;;4993773;28;20049;-75
2024/03/18 12:00:38;;;;;;;13.07;6.28;;;486.60;1715.20;;;;;;5005355;28;20056;-74
2024/03/18 12:03:10;;;;;;;7.90;5.78;;;486.40;1715.20;;;;;;5028494;28;20029;-73
2024/03/18 12:05:37;;;;;;;11.18;7.93;;;461.50;1689.60;;;;;;4991258;28;20110;-75
2024/03/18 12:08:08;;;;;;;19.27;16.50;;;461.60;1740.80;;;;;;4995269;28;20030;-75
2024/03/18 12:10:35;;;;;;;12.55;8.05;;;461.60;1715.20;;;;;;5030407;28;20021;-76
2024/03/18 12:13:02;;;;;;;57.00;34.35;;;486.40;1715.20;;;;;;5004121;28;20109;-74
2024/03/18 12:15:29;;;;;;;36.05;23.63;;;486.50;1715.20;;;;;;5030558;28;20026;-74
2024/03/18 12:17:54;;;;;;;10.38;5.57;;;486.40;1689.60;;;;;;5028064;28;20036;-72
2024/03/18 12:20:23;;;;;;;29.00;18.77;;;486.40;1689.60;;;;;;5029375;28;20030;-74
2024/03/18 12:22:59;;;;;;;8.00;6.22;;;486.40;1689.60;;;;;;5018384;28;20029;-76
2024/03/18 12:28:32;;;;;;;9.30;7.30;;;486.60;1740.80;;;;;;5010752;28;20033;-73
2024/03/18 12:31:04;;;;;;;9.15;6.07;;;486.70;1740.80;;;;;;5010217;28;20038;-75
2024/03/18 12:33:33;;;;;;;8.20;5.28;;;486.50;1715.20;;;;;;5011083;28;20037;-73
2024/03/18 12:36:06;;;;;;;9.70;5.15;;;486.60;1715.20;;;;;;5010639;28;20014;-75
2024/03/18 12:38:36;;;;;;;5.70;4.18;;;486.70;1715.20;;;;;;5010607;28;20120;-73
2024/03/18 12:41:03;;;;;;;9.75;6.03;;;486.70;1715.20;;;;;;4997888;28;20365;-73
2024/03/18 12:43:36;;;;;;;6.53;4.78;;;486.80;1689.60;;;;;;5010542;28;20040;-73
2024/03/18 12:46:02;;;;;;;8.02;5.57;;;486.80;1664.00;;;;;;5010100;28;20018;-78
2024/03/18 12:48:28;;;;;;;6.32;4.05;;;486.90;1689.60;;;;;;5010044;28;20045;-73
2024/03/18 12:50:55;;;;;;;8.73;4.70;;;486.80;1689.60;;;;;;5008724;28;20030;-73
2024/03/18 12:53:21;;;;;;;9.27;5.53;;;486.80;1715.20;;;;;;5012216;28;20017;-73